createdAt,value
2022-10-04T00:01:11.650Z,2.70
2022-10-04T00:03:45.971Z,3.35
2022-10-04T00:06:22.578Z,3.35
2022-10-04T00:08:54.975Z,3.40
2022-10-04T00:11:29.368Z,3.22
2022-10-04T00:14:00.786Z,3.20
2022-10-04T00:16:34.087Z,3.05
2022-10-04T00:19:25.498Z,3.35
2022-10-04T00:22:28.562Z,3.00
2022-10-04T00:25:20.814Z,3.20
2022-10-04T00:28:29.298Z,2.88
2022-10-04T00:31:18.117Z,3.03
2022-10-04T00:33:49.765Z,2.83
2022-10-04T00:36:46.611Z,2.80
2022-10-04T00:39:26.593Z,3.10
2022-10-04T00:42:06.171Z,2.58
2022-10-04T00:44:42.873Z,2.92
2022-10-04T00:47:21.949Z,2.55
2022-10-04T00:49:56.562Z,2.47
2022-10-04T00:52:30.219Z,2.83
2022-10-04T00:55:04.175Z,2.70
2022-10-04T00:57:36.736Z,2.55
2022-10-04T01:00:09.928Z,2.78
2022-10-04T01:02:47.900Z,2.47
2022-10-04T01:05:20.199Z,2.53
2022-10-04T01:07:56.432Z,2.08
2022-10-04T01:10:28.927Z,2.67
2022-10-04T01:13:06.149Z,2.70
2022-10-04T01:15:44.031Z,2.35
2022-10-04T01:18:17.031Z,2.37
2022-10-04T01:20:55.969Z,2.60
2022-10-04T01:23:54.649Z,2.50
2022-10-04T01:26:43.556Z,2.90
2022-10-04T01:29:15.751Z,2.93
2022-10-04T01:31:46.431Z,2.80
2022-10-04T01:34:18.224Z,2.70
2022-10-04T01:36:49.061Z,2.38
2022-10-04T01:39:20.857Z,2.05
2022-10-04T01:41:55.921Z,2.30
2022-10-04T01:44:32.170Z,2.20
2022-10-04T01:47:07.628Z,2.38
2022-10-04T01:49:40.093Z,2.20
2022-10-04T01:52:16.396Z,2.73
2022-10-04T01:54:51.595Z,3.10
2022-10-04T01:57:23.861Z,2.40
2022-10-04T01:59:58.675Z,2.40
2022-10-04T02:02:35.259Z,2.60
2022-10-04T02:05:07.993Z,2.30
2022-10-04T02:07:39.027Z,2.23
2022-10-04T02:10:13.790Z,2.47
2022-10-04T02:12:47.333Z,2.47
2022-10-04T02:15:17.725Z,2.37
2022-10-04T02:17:46.551Z,2.67
2022-10-04T02:20:18.593Z,3.10
2022-10-04T02:22:52.142Z,2.40
2022-10-04T02:25:22.693Z,2.80
2022-10-04T02:27:56.268Z,2.37
2022-10-04T02:30:25.897Z,2.90
2022-10-04T02:33:00.677Z,2.80
2022-10-04T02:35:35.711Z,2.67
2022-10-04T02:38:11.709Z,3.00
2022-10-04T02:40:49.233Z,2.83
2022-10-04T02:43:22.560Z,2.77
2022-10-04T02:45:53.845Z,2.70
2022-10-04T02:48:34.864Z,3.00
2022-10-04T02:51:16.169Z,2.20
2022-10-04T02:53:54.422Z,2.53
2022-10-04T02:56:25.513Z,2.20
2022-10-04T02:58:55.704Z,2.77
2022-10-04T03:01:29.456Z,2.37
2022-10-04T03:03:59.780Z,2.13
2022-10-04T03:06:32.949Z,2.40
2022-10-04T03:09:05.109Z,1.97
2022-10-04T03:11:38.279Z,2.37
2022-10-04T03:14:14.156Z,1.63
2022-10-04T03:16:46.376Z,2.17
2022-10-04T03:19:18.076Z,2.10
2022-10-04T03:21:50.691Z,1.93
2022-10-04T03:24:22.692Z,2.17
2022-10-04T03:26:56.497Z,2.50
2022-10-04T03:29:27.733Z,2.40
2022-10-04T03:31:58.794Z,2.60
2022-10-04T03:34:36.551Z,2.37
2022-10-04T03:37:08.604Z,2.20
2022-10-04T03:39:40.746Z,2.27
2022-10-04T03:42:16.496Z,2.33
2022-10-04T03:44:46.824Z,2.23
2022-10-04T03:47:20.937Z,1.90
2022-10-04T03:49:52.204Z,1.87
2022-10-04T03:52:25.644Z,2.17
2022-10-04T03:54:58.494Z,2.23
2022-10-04T03:57:29.877Z,2.93
2022-10-04T03:59:59.839Z,3.30
2022-10-04T04:02:35.479Z,3.73
2022-10-04T04:05:12.012Z,3.20
2022-10-04T04:07:46.856Z,2.97
2022-10-04T04:10:23.859Z,2.20
2022-10-04T04:12:58.378Z,2.30
2022-10-04T04:15:31.517Z,2.37
2022-10-04T04:18:04.560Z,2.40
2022-10-04T04:20:36.170Z,2.47
2022-10-04T04:23:14.013Z,2.07
2022-10-04T04:25:45.989Z,2.00
2022-10-04T04:28:27.028Z,2.03
2022-10-04T04:31:01.614Z,1.90
2022-10-04T04:33:35.240Z,2.53
2022-10-04T04:36:08.473Z,1.97
2022-10-04T04:38:57.003Z,1.83
2022-10-04T04:41:28.325Z,2.13
2022-10-04T04:43:58.972Z,2.33
2022-10-04T04:46:29.587Z,2.13
2022-10-04T04:49:02.619Z,2.27
2022-10-04T04:51:34.471Z,2.33
2022-10-04T04:54:05.796Z,2.23
2022-10-04T04:56:36.663Z,2.20
2022-10-04T04:59:09.179Z,2.17
2022-10-04T05:01:45.552Z,2.40
2022-10-04T05:04:21.447Z,2.50
2022-10-04T05:07:01.007Z,2.30
2022-10-04T05:09:32.550Z,2.33
2022-10-04T05:12:08.795Z,2.90
2022-10-04T05:14:42.524Z,2.87
2022-10-04T05:17:20.163Z,3.23
2022-10-04T05:19:49.129Z,2.87
2022-10-04T05:22:22.620Z,2.90
2022-10-04T05:24:54.972Z,3.20
2022-10-04T05:27:30.123Z,3.40
2022-10-04T05:30:07.395Z,3.70
2022-10-04T05:32:50.228Z,2.90
2022-10-04T05:35:20.610Z,3.33
2022-10-04T05:38:00.247Z,2.23
2022-10-04T05:40:39.452Z,3.17
2022-10-04T05:43:23.642Z,2.60
2022-10-04T05:46:23.415Z,2.73
2022-10-04T05:48:56.121Z,2.93
2022-10-04T05:51:28.046Z,2.50
2022-10-04T05:53:59.138Z,2.70
2022-10-04T05:56:49.749Z,2.47
2022-10-04T05:59:37.266Z,2.97
2022-10-04T06:02:22.783Z,2.80
2022-10-04T06:05:09.551Z,3.50
2022-10-04T06:07:43.003Z,5.63
2022-10-04T06:10:40.711Z,5.67
2022-10-04T06:13:19.153Z,4.60
2022-10-04T06:16:12.896Z,3.77
2022-10-04T06:19:03.865Z,7.77
2022-10-04T06:21:42.571Z,9.27
2022-10-04T06:24:15.806Z,5.97
2022-10-04T06:26:48.698Z,4.47
2022-10-04T06:29:20.648Z,4.20
2022-10-04T06:32:15.879Z,4.80
2022-10-04T06:35:18.168Z,4.43
2022-10-04T06:38:23.629Z,5.13
2022-10-04T06:41:08.435Z,6.43
2022-10-04T06:43:51.646Z,5.70
2022-10-04T06:46:28.192Z,5.00
2022-10-04T06:49:21.212Z,4.97
2022-10-04T06:52:21.377Z,3.97
2022-10-04T06:55:15.351Z,3.60
2022-10-04T06:58:08.964Z,3.87
2022-10-04T07:00:49.135Z,3.90
2022-10-04T07:03:26.464Z,8.93
2022-10-04T07:06:01.020Z,5.80
2022-10-04T07:08:39.188Z,7.37
2022-10-04T07:11:15.504Z,5.00
2022-10-04T07:13:52.351Z,5.07
2022-10-04T07:16:33.813Z,6.00
2022-10-04T07:19:13.517Z,7.20
2022-10-04T07:21:50.591Z,5.50
2022-10-04T07:24:26.316Z,5.30
2022-10-04T07:26:57.164Z,4.57
2022-10-04T07:29:29.178Z,6.57
2022-10-04T07:32:09.253Z,6.13
2022-10-04T07:34:44.311Z,5.70
2022-10-04T07:37:15.415Z,4.93
2022-10-04T07:39:51.808Z,5.47
2022-10-04T07:42:27.442Z,5.53
2022-10-04T07:45:10.209Z,5.20
2022-10-04T07:47:38.800Z,4.93
2022-10-04T07:50:23.484Z,4.75
2022-10-04T07:53:09.611Z,4.85
2022-10-04T07:55:49.193Z,5.47
2022-10-04T07:58:33.013Z,5.27
2022-10-04T08:01:06.171Z,5.50
2022-10-04T08:03:46.911Z,5.25
2022-10-04T08:06:22.549Z,5.93
2022-10-04T08:09:13.623Z,6.40
2022-10-04T08:11:51.977Z,6.10
2022-10-04T08:14:29.249Z,6.20
2022-10-04T08:17:15.655Z,6.82
2022-10-04T08:19:56.359Z,6.40
2022-10-04T08:22:36.332Z,6.20
2022-10-04T08:25:13.651Z,5.13
2022-10-04T08:28:17.862Z,5.15
2022-10-04T08:31:18.001Z,5.32
2022-10-04T08:34:00.676Z,5.38
2022-10-04T08:36:46.855Z,5.00
2022-10-04T08:39:35.743Z,4.40
2022-10-04T08:42:29.197Z,5.32
2022-10-04T08:45:37.905Z,4.00
2022-10-04T08:48:51.609Z,3.38
2022-10-04T08:52:00.208Z,3.90
2022-10-04T08:54:57.459Z,3.30
2022-10-04T08:57:54.484Z,3.75
2022-10-04T09:00:36.787Z,3.85
2022-10-04T09:03:46.613Z,3.28
2022-10-04T09:06:34.393Z,3.53
2022-10-04T09:09:48.035Z,3.58
2022-10-04T09:12:49.677Z,3.45
2022-10-04T09:15:31.639Z,2.80
2022-10-04T09:18:21.575Z,2.78
2022-10-04T09:21:01.257Z,3.10
2022-10-04T09:24:05.892Z,2.92
2022-10-04T09:26:46.055Z,3.55
2022-10-04T09:29:55.543Z,2.78
2022-10-04T09:33:04.085Z,3.00
2022-10-04T09:36:05.196Z,3.10
2022-10-04T09:39:29.870Z,3.00
2022-10-04T09:42:15.753Z,2.47
2022-10-04T09:45:02.790Z,3.10
2022-10-04T09:47:37.948Z,2.95
2022-10-04T09:50:26.927Z,2.00
2022-10-04T09:53:02.859Z,2.50
2022-10-04T09:55:52.588Z,2.00
2022-10-04T09:58:51.866Z,1.80
2022-10-04T10:01:29.544Z,2.28
2022-10-04T10:04:25.104Z,2.10
2022-10-04T10:07:12.004Z,2.30
2022-10-04T10:10:04.479Z,2.17
2022-10-04T10:13:11.725Z,2.15
2022-10-04T10:16:00.120Z,1.85
2022-10-04T10:18:44.099Z,2.00
2022-10-04T10:21:28.284Z,2.20
2022-10-04T10:24:17.441Z,3.75
2022-10-04T10:27:03.575Z,1.85
2022-10-04T10:29:48.041Z,2.17
2022-10-04T10:32:48.739Z,1.75
2022-10-04T10:35:27.944Z,2.03
2022-10-04T10:38:22.985Z,2.45
2022-10-04T10:41:31.688Z,2.08
2022-10-04T10:44:31.101Z,1.85
2022-10-04T10:47:22.045Z,2.13
2022-10-04T10:50:25.250Z,2.15
2022-10-04T10:53:29.458Z,1.92
2022-10-04T10:56:32.586Z,3.58
2022-10-04T10:59:42.564Z,2.15
2022-10-04T11:02:50.330Z,2.72
2022-10-04T11:05:41.639Z,2.63
2022-10-04T11:08:35.869Z,1.38
2022-10-04T11:11:21.157Z,1.40
2022-10-04T11:14:16.797Z,1.70
2022-10-04T11:17:24.080Z,2.10
2022-10-04T11:20:26.221Z,1.92
2022-10-04T11:23:22.047Z,1.23
2022-10-04T11:26:08.718Z,1.40
2022-10-04T11:28:46.857Z,2.22
2022-10-04T11:31:51.773Z,2.30
2022-10-04T11:34:52.134Z,2.10
2022-10-04T11:37:32.403Z,5.03
2022-10-04T11:40:23.805Z,1.88
2022-10-04T11:43:12.341Z,2.60
2022-10-04T11:46:13.682Z,1.70
2022-10-04T11:48:55.408Z,1.75
2022-10-04T11:52:02.613Z,1.90
2022-10-04T11:55:08.225Z,2.00
2022-10-04T11:57:44.807Z,2.03
2022-10-04T12:00:17.044Z,1.70
2022-10-04T12:03:31.452Z,1.50
2022-10-04T12:06:23.372Z,1.60
2022-10-04T12:09:06.732Z,1.77
2022-10-04T12:12:29.895Z,1.60
2022-10-04T12:15:19.593Z,1.27
2022-10-04T12:18:19.783Z,2.97
2022-10-04T12:21:07.494Z,1.50
2022-10-04T12:24:04.200Z,1.45
2022-10-04T12:26:51.589Z,3.60
2022-10-04T12:30:03.116Z,2.50
2022-10-04T12:32:40.069Z,1.70
2022-10-04T12:35:24.126Z,1.50
2022-10-04T12:38:15.226Z,1.50
2022-10-04T12:40:50.239Z,1.58
2022-10-04T12:43:25.903Z,1.45
2022-10-04T12:46:07.518Z,1.15
2022-10-04T12:48:58.375Z,1.30
2022-10-04T12:51:39.485Z,1.40
2022-10-04T12:54:30.319Z,1.23
2022-10-04T12:57:10.731Z,1.27
2022-10-04T12:59:53.461Z,1.10
2022-10-04T13:02:37.001Z,1.13
2022-10-04T13:05:18.095Z,1.00
2022-10-04T13:08:17.765Z,1.40
2022-10-04T13:11:10.971Z,1.10
2022-10-04T13:14:04.228Z,1.00
2022-10-04T13:19:44.292Z,1.10
2022-10-04T13:22:56.095Z,1.02
2022-10-04T13:26:00.006Z,1.75
2022-10-04T13:28:39.585Z,1.20
2022-10-04T13:31:16.012Z,1.20
2022-10-04T13:33:51.466Z,1.25
2022-10-04T13:36:30.741Z,2.00
2022-10-04T13:39:25.378Z,1.10
2022-10-04T13:42:21.004Z,1.55
2022-10-04T13:45:06.759Z,1.55
2022-10-04T13:47:53.044Z,1.25
2022-10-04T13:50:36.711Z,1.10
2022-10-04T13:53:37.149Z,1.10
2022-10-04T13:56:35.168Z,1.58
2022-10-04T13:59:12.345Z,1.08
2022-10-04T14:02:34.924Z,1.50
2022-10-04T14:05:46.816Z,1.15
2022-10-04T14:08:44.423Z,1.70
2022-10-04T14:11:48.949Z,1.00
2022-10-04T14:15:00.460Z,1.67
2022-10-04T14:18:15.735Z,1.70
2022-10-04T14:21:23.646Z,1.45
2022-10-04T14:24:34.893Z,1.23
2022-10-04T14:27:28.475Z,1.73
2022-10-04T14:30:07.663Z,1.48
2022-10-04T14:33:08.236Z,1.15
2022-10-04T14:35:46.669Z,1.38
2022-10-04T14:38:39.609Z,1.30
2022-10-04T14:41:33.940Z,1.35
2022-10-04T14:44:30.047Z,2.28
2022-10-04T14:47:13.756Z,2.40
2022-10-04T14:50:05.179Z,1.50
2022-10-04T14:52:50.589Z,1.30
2022-10-04T14:55:49.113Z,1.58
2022-10-04T14:58:29.549Z,1.42
2022-10-04T15:01:19.542Z,1.30
2022-10-04T15:04:13.947Z,1.38
2022-10-04T15:06:49.379Z,1.13
2022-10-04T15:09:50.689Z,1.08
2022-10-04T15:13:10.019Z,1.20
2022-10-04T15:15:50.989Z,1.60
2022-10-04T15:18:29.353Z,1.30
2022-10-04T15:21:02.336Z,1.35
2022-10-04T15:23:37.954Z,1.08
2022-10-04T15:26:50.795Z,1.20
2022-10-04T15:29:29.018Z,1.33
2022-10-04T15:32:07.651Z,1.20
2022-10-04T15:34:45.639Z,1.30
2022-10-04T15:37:25.608Z,1.30
2022-10-04T15:40:27.641Z,1.63
2022-10-04T15:43:17.193Z,1.42
2022-10-04T15:46:03.120Z,1.67
2022-10-04T15:48:47.770Z,1.80
2022-10-04T15:51:26.849Z,1.50
2022-10-04T15:54:17.485Z,1.35
2022-10-04T15:56:57.141Z,1.42
2022-10-04T15:59:37.500Z,1.80
2022-10-04T16:02:27.551Z,2.00
2022-10-04T16:05:04.508Z,1.60
2022-10-04T16:08:00.382Z,2.00
2022-10-04T16:10:48.245Z,2.03
2022-10-04T16:13:34.476Z,1.45
2022-10-04T16:16:32.210Z,1.45
2022-10-04T16:19:12.204Z,1.42
2022-10-04T16:21:51.970Z,1.58
2022-10-04T16:24:40.917Z,4.45
2022-10-04T16:27:43.149Z,2.33
2022-10-04T16:30:28.440Z,1.70
2022-10-04T16:33:31.213Z,1.85
2022-10-04T16:36:10.111Z,2.80
2022-10-04T16:39:07.677Z,1.60
2022-10-04T16:41:44.609Z,1.30
2022-10-04T16:44:32.501Z,1.42
2022-10-04T16:47:04.360Z,1.30
2022-10-04T16:49:41.515Z,1.55
2022-10-04T16:52:27.450Z,1.70
2022-10-04T16:55:22.691Z,1.70
2022-10-04T16:58:42.935Z,2.00
2022-10-04T17:02:03.224Z,4.22
2022-10-04T17:04:52.185Z,5.55
2022-10-04T17:07:28.963Z,4.70
2022-10-04T17:10:03.384Z,5.15
2022-10-04T17:12:45.535Z,2.67
2022-10-04T17:15:27.667Z,1.60
2022-10-04T17:18:13.590Z,1.50
2022-10-04T17:20:56.745Z,1.30
2022-10-04T17:23:47.069Z,1.52
2022-10-04T17:26:31.785Z,2.90
2022-10-04T17:29:09.951Z,5.18
2022-10-04T17:31:50.540Z,8.32
2022-10-04T17:34:31.646Z,4.90
2022-10-04T17:37:14.344Z,5.82
2022-10-04T17:39:49.634Z,6.53
2022-10-04T17:42:30.361Z,5.00
2022-10-04T17:45:19.847Z,3.60
2022-10-04T17:48:16.396Z,2.15
2022-10-04T17:51:12.411Z,2.03
2022-10-04T17:54:06.133Z,2.08
2022-10-04T17:56:40.860Z,3.10
2022-10-04T17:59:14.192Z,2.30
2022-10-04T18:01:47.300Z,1.73
2022-10-04T18:04:20.754Z,1.60
2022-10-04T18:06:53.889Z,1.50
2022-10-04T18:09:30.579Z,1.90
2022-10-04T18:12:02.930Z,1.70
2022-10-04T18:14:51.974Z,1.73
2022-10-04T18:17:32.967Z,2.05
2022-10-04T18:20:21.469Z,2.80
2022-10-04T18:22:59.372Z,3.30
2022-10-04T18:25:30.439Z,3.70
2022-10-04T18:28:06.629Z,3.40
2022-10-04T18:30:52.525Z,4.57
2022-10-04T18:33:26.413Z,4.65
2022-10-04T18:36:04.655Z,3.72
2022-10-04T18:38:35.696Z,8.80
2022-10-04T18:41:19.275Z,4.82
2022-10-04T18:43:52.799Z,3.67
2022-10-04T18:46:23.232Z,3.50
2022-10-04T18:48:54.872Z,3.03
2022-10-04T18:51:29.208Z,2.65
2022-10-04T18:54:15.230Z,2.80
2022-10-04T18:57:04.597Z,2.90
2022-10-04T18:59:57.602Z,2.63
2022-10-04T19:02:35.143Z,2.90
2022-10-04T19:05:12.173Z,6.05
2022-10-04T19:07:48.176Z,6.47
2022-10-04T19:10:26.998Z,6.15
2022-10-04T19:13:18.123Z,6.70
2022-10-04T19:16:04.920Z,4.57
2022-10-04T19:18:48.080Z,3.83
2022-10-04T19:21:26.786Z,3.70
2022-10-04T19:24:12.048Z,3.58
2022-10-04T19:26:45.147Z,3.55
2022-10-04T19:29:24.726Z,5.10
2022-10-04T19:31:59.101Z,4.05
2022-10-04T19:34:40.208Z,4.45
2022-10-04T19:37:17.728Z,8.63
2022-10-04T19:39:57.315Z,12.02
2022-10-04T19:42:35.538Z,17.35
2022-10-04T19:45:19.460Z,13.43
2022-10-04T19:47:51.963Z,11.02
2022-10-04T19:50:24.160Z,9.80
2022-10-04T19:52:55.382Z,11.52
2022-10-04T19:55:43.821Z,15.40
2022-10-04T19:58:38.222Z,6.32
2022-10-04T20:01:13.073Z,13.82
2022-10-04T20:03:42.864Z,15.07
2022-10-04T20:06:21.756Z,15.15
2022-10-04T20:09:01.944Z,8.70
2022-10-04T20:11:49.984Z,5.45
2022-10-04T20:14:55.365Z,3.00
2022-10-04T20:17:44.244Z,4.22
2022-10-04T20:20:16.257Z,6.43
2022-10-04T20:22:57.871Z,6.10
2022-10-04T20:26:00.318Z,6.38
2022-10-04T20:28:44.845Z,5.18
2022-10-04T20:31:47.128Z,4.60
2022-10-04T20:34:35.440Z,5.93
2022-10-04T20:37:05.451Z,6.63
2022-10-04T20:40:01.542Z,6.53
2022-10-04T20:42:33.989Z,5.30
2022-10-04T20:45:19.064Z,4.68
2022-10-04T20:47:49.152Z,5.72
2022-10-04T20:50:30.691Z,11.88
2022-10-04T20:53:02.851Z,10.98
2022-10-04T20:55:33.839Z,6.93
2022-10-04T20:58:05.122Z,6.43
2022-10-04T21:00:35.828Z,5.70
2022-10-04T21:03:22.265Z,4.47
2022-10-04T21:06:03.891Z,4.70
2022-10-04T21:08:33.487Z,4.72
2022-10-04T21:11:44.113Z,12.35
2022-10-04T21:14:23.924Z,7.30
2022-10-04T21:16:58.695Z,4.72
2022-10-04T21:19:46.544Z,4.28
2022-10-04T21:22:39.858Z,3.95
2022-10-04T21:25:41.652Z,3.92
2022-10-04T21:28:32.049Z,4.03
2022-10-04T21:31:01.052Z,4.18
2022-10-04T21:33:31.846Z,4.60
2022-10-04T21:36:00.552Z,4.00
2022-10-04T21:38:30.893Z,4.68
2022-10-04T21:40:59.863Z,4.63
2022-10-04T21:43:29.157Z,5.82
2022-10-04T21:45:57.834Z,5.47
2022-10-04T21:48:27.468Z,5.47
2022-10-04T21:50:56.422Z,5.97
2022-10-04T21:53:25.662Z,6.05
2022-10-04T21:55:55.894Z,5.80
2022-10-04T21:58:24.378Z,5.65
2022-10-04T22:00:53.639Z,4.93
2022-10-04T22:03:22.654Z,5.22
2022-10-04T22:05:51.300Z,5.90
2022-10-04T22:08:20.323Z,5.30
2022-10-04T22:10:49.290Z,5.45
2022-10-04T22:13:19.608Z,6.03
2022-10-04T22:15:48.101Z,5.57
2022-10-04T22:18:17.465Z,5.53
2022-10-04T22:20:47.107Z,5.47
2022-10-04T22:23:19.176Z,4.95
2022-10-04T22:25:48.501Z,4.70
2022-10-04T22:28:23.476Z,5.03
2022-10-04T22:30:53.671Z,5.00
2022-10-04T22:33:29.788Z,4.90
2022-10-04T22:36:00.838Z,4.45
2022-10-04T22:38:29.317Z,5.07
2022-10-04T22:40:58.673Z,4.18
2022-10-04T22:43:28.510Z,4.05
2022-10-04T22:45:57.364Z,3.20
2022-10-04T22:48:28.932Z,3.78
2022-10-04T22:50:57.535Z,3.53
2022-10-04T22:53:26.395Z,3.78
2022-10-04T22:55:56.205Z,3.97
2022-10-04T22:58:25.528Z,3.58
2022-10-04T23:00:56.760Z,3.83
2022-10-04T23:03:31.231Z,3.65
2022-10-04T23:06:02.113Z,3.50
2022-10-04T23:08:31.710Z,3.20
2022-10-04T23:11:02.101Z,5.22
2022-10-04T23:13:31.033Z,5.60
2022-10-04T23:16:07.878Z,4.82
2022-10-04T23:18:36.902Z,4.50
2022-10-04T23:21:20.483Z,4.00
2022-10-04T23:23:50.697Z,3.30
2022-10-04T23:26:24.260Z,3.17
2022-10-04T23:28:53.114Z,3.55
2022-10-04T23:31:25.632Z,4.05
2022-10-04T23:33:58.272Z,4.45
2022-10-04T23:36:27.153Z,4.10
2022-10-04T23:39:00.580Z,3.33
2022-10-04T23:41:29.677Z,3.85
2022-10-04T23:43:59.056Z,3.95
2022-10-04T23:46:31.681Z,2.88
2022-10-04T23:49:00.527Z,3.28
2022-10-04T23:51:29.600Z,3.40
2022-10-04T23:53:59.642Z,3.65
2022-10-04T23:56:30.478Z,3.30
2022-10-04T23:59:00.731Z,3.75
